sensor_id;sensor_type;location;lat;lon;timestamp;pressure;altitude;pressure_sealevel;temperature;humidity
2184;BME280;1098;48.940;8.962;2022-08-19T00:02:14;98094.91;;;20.85;100.00
2184;BME280;1098;48.940;8.962;2022-08-19T00:04:43;98103.03;;;20.63;100.00
2184;BME280;1098;48.940;8.962;2022-08-19T00:07:13;98098.13;;;20.60;100.00
2184;BME280;1098;48.940;8.962;2022-08-19T00:09:45;98094.63;;;20.87;100.00
2184;BME280;1098;48.940;8.962;2022-08-19T00:12:14;98089.13;;;20.87;100.00
2184;BME280;1098;48.940;8.962;2022-08-19T00:14:42;98096.94;;;20.66;100.00
2184;BME280;1098;48.940;8.962;2022-08-19T00:17:11;98090.84;;;20.69;100.00
2184;BME280;1098;48.940;8.962;2022-08-19T00:19:39;98080.47;;;20.80;100.00
2184;BME280;1098;48.940;8.962;2022-08-19T00:22:10;98068.81;;;20.42;100.00
2184;BME280;1098;48.940;8.962;2022-08-19T00:24:41;98104.91;;;20.49;100.00
2184;BME280;1098;48.940;8.962;2022-08-19T00:27:18;98090.91;;;20.32;100.00
2184;BME280;1098;48.940;8.962;2022-08-19T00:29:53;98119.53;;;20.44;100.00
2184;BME280;1098;48.940;8.962;2022-08-19T00:32:21;98105.97;;;20.34;100.00
2184;BME280;1098;48.940;8.962;2022-08-19T00:34:50;98113.47;;;20.29;100.00
2184;BME280;1098;48.940;8.962;2022-08-19T00:37:20;98099.50;;;20.76;100.00
2184;BME280;1098;48.940;8.962;2022-08-19T00:39:50;98093.94;;;20.49;100.00
2184;BME280;1098;48.940;8.962;2022-08-19T00:42:21;98034.63;;;20.34;100.00
2184;BME280;1098;48.940;8.962;2022-08-19T00:44:52;98086.44;;;20.54;100.00
2184;BME280;1098;48.940;8.962;2022-08-19T00:47:20;98067.00;;;20.51;100.00
2184;BME280;1098;48.940;8.962;2022-08-19T00:49:51;98053.59;;;20.49;100.00
2184;BME280;1098;48.940;8.962;2022-08-19T00:52:23;98060.50;;;20.47;100.00
2184;BME280;1098;48.940;8.962;2022-08-19T00:54:52;98071.09;;;20.53;100.00
2184;BME280;1098;48.940;8.962;2022-08-19T00:57:27;98072.38;;;20.42;100.00
2184;BME280;1098;48.940;8.962;2022-08-19T00:59:59;98072.97;;;20.39;100.00
2184;BME280;1098;48.940;8.962;2022-08-19T01:02:30;98070.44;;;20.43;100.00
2184;BME280;1098;48.940;8.962;2022-08-19T01:05:02;98051.38;;;20.33;100.00
2184;BME280;1098;48.940;8.962;2022-08-19T01:07:31;98074.50;;;20.45;100.00
2184;BME280;1098;48.940;8.962;2022-08-19T01:10:06;98078.50;;;20.53;100.00
2184;BME280;1098;48.940;8.962;2022-08-19T01:12:39;98086.16;;;20.37;100.00
2184;BME280;1098;48.940;8.962;2022-08-19T01:15:10;98084.53;;;20.36;100.00
2184;BME280;1098;48.940;8.962;2022-08-19T01:17:39;98076.44;;;20.45;100.00
2184;BME280;1098;48.940;8.962;2022-08-19T01:20:12;98062.81;;;20.40;100.00
2184;BME280;1098;48.940;8.962;2022-08-19T01:22:45;98078.06;;;20.46;100.00
2184;BME280;1098;48.940;8.962;2022-08-19T01:25:16;98078.09;;;20.27;100.00
2184;BME280;1098;48.940;8.962;2022-08-19T01:27:48;98080.91;;;20.41;100.00
2184;BME280;1098;48.940;8.962;2022-08-19T01:30:22;98070.38;;;20.62;100.00
2184;BME280;1098;48.940;8.962;2022-08-19T01:32:52;98077.03;;;20.42;100.00
2184;BME280;1098;48.940;8.962;2022-08-19T01:35:22;98072.06;;;20.44;100.00
2184;BME280;1098;48.940;8.962;2022-08-19T01:37:55;98028.25;;;20.20;100.00
2184;BME280;1098;48.940;8.962;2022-08-19T01:40:29;98076.38;;;20.31;100.00
2184;BME280;1098;48.940;8.962;2022-08-19T01:42:58;98072.44;;;20.37;100.00
2184;BME280;1098;48.940;8.962;2022-08-19T01:45:28;98080.84;;;20.27;100.00
2184;BME280;1098;48.940;8.962;2022-08-19T01:48:00;98085.75;;;20.11;100.00
2184;BME280;1098;48.940;8.962;2022-08-19T01:50:29;98094.00;;;20.11;100.00
2184;BME280;1098;48.940;8.962;2022-08-19T01:53:01;98086.31;;;20.27;100.00
2184;BME280;1098;48.940;8.962;2022-08-19T01:55:35;98077.63;;;20.39;100.00
2184;BME280;1098;48.940;8.962;2022-08-19T01:58:12;98079.47;;;20.43;100.00
2184;BME280;1098;48.940;8.962;2022-08-19T02:00:42;98074.53;;;20.27;100.00
2184;BME280;1098;48.940;8.962;2022-08-19T02:03:10;98048.63;;;20.00;100.00
2184;BME280;1098;48.940;8.962;2022-08-19T02:05:39;98071.19;;;20.30;100.00
2184;BME280;1098;48.940;8.962;2022-08-19T02:08:10;98047.88;;;20.13;100.00
2184;BME280;1098;48.940;8.962;2022-08-19T02:10:43;98072.75;;;20.17;100.00
2184;BME280;1098;48.940;8.962;2022-08-19T02:13:12;98092.94;;;20.07;100.00
2184;BME280;1098;48.940;8.962;2022-08-19T02:15:41;98059.19;;;19.93;100.00
2184;BME280;1098;48.940;8.962;2022-08-19T02:18:10;98091.38;;;20.01;100.00
2184;BME280;1098;48.940;8.962;2022-08-19T02:20:42;98077.41;;;19.84;100.00
2184;BME280;1098;48.940;8.962;2022-08-19T02:23:15;98090.66;;;20.14;100.00
2184;BME280;1098;48.940;8.962;2022-08-19T02:25:47;98090.44;;;20.11;100.00
2184;BME280;1098;48.940;8.962;2022-08-19T02:28:16;98081.22;;;20.20;100.00
2184;BME280;1098;48.940;8.962;2022-08-19T02:30:46;98085.06;;;20.19;100.00
2184;BME280;1098;48.940;8.962;2022-08-19T02:33:15;98088.22;;;20.13;100.00
2184;BME280;1098;48.940;8.962;2022-08-19T02:35:45;98073.59;;;19.99;100.00
2184;BME280;1098;48.940;8.962;2022-08-19T02:38:18;98081.31;;;19.97;100.00
2184;BME280;1098;48.940;8.962;2022-08-19T02:40:56;98075.00;;;19.96;100.00
2184;BME280;1098;48.940;8.962;2022-08-19T02:43:27;98072.56;;;20.13;100.00
2184;BME280;1098;48.940;8.962;2022-08-19T02:46:01;98052.44;;;19.85;100.00
2184;BME280;1098;48.940;8.962;2022-08-19T02:48:29;98065.78;;;19.92;100.00
2184;BME280;1098;48.940;8.962;2022-08-19T02:50:59;98057.25;;;19.94;100.00
2184;BME280;1098;48.940;8.962;2022-08-19T02:53:29;98067.53;;;20.02;100.00
2184;BME280;1098;48.940;8.962;2022-08-19T02:55:58;98084.16;;;19.92;100.00
2184;BME280;1098;48.940;8.962;2022-08-19T02:58:26;98083.03;;;19.74;100.00
2184;BME280;1098;48.940;8.962;2022-08-19T03:00:56;98090.13;;;19.75;100.00
2184;BME280;1098;48.940;8.962;2022-08-19T03:03:25;98074.94;;;19.64;100.00
2184;BME280;1098;48.940;8.962;2022-08-19T03:06:07;98078.66;;;19.73;100.00
2184;BME280;1098;48.940;8.962;2022-08-19T03:08:39;98075.31;;;19.76;100.00
2184;BME280;1098;48.940;8.962;2022-08-19T03:11:13;98061.47;;;19.67;100.00
2184;BME280;1098;48.940;8.962;2022-08-19T03:13:41;98079.09;;;19.61;100.00
2184;BME280;1098;48.940;8.962;2022-08-19T03:16:12;98086.22;;;19.62;100.00
2184;BME280;1098;48.940;8.962;2022-08-19T03:18:40;98092.97;;;19.70;100.00
2184;BME280;1098;48.940;8.962;2022-08-19T03:21:16;98071.75;;;19.56;100.00
2184;BME280;1098;48.940;8.962;2022-08-19T03:23:46;98085.09;;;19.63;100.00
2184;BME280;1098;48.940;8.962;2022-08-19T03:26:14;98084.50;;;19.85;100.00
2184;BME280;1098;48.940;8.962;2022-08-19T03:28:44;98086.28;;;19.76;100.00
2184;BME280;1098;48.940;8.962;2022-08-19T03:31:26;98093.50;;;19.72;100.00
2184;BME280;1098;48.940;8.962;2022-08-19T03:34:13;98101.03;;;19.61;100.00
2184;BME280;1098;48.940;8.962;2022-08-19T03:36:42;98096.66;;;19.79;100.00
2184;BME280;1098;48.940;8.962;2022-08-19T03:39:15;98101.03;;;19.61;100.00
2184;BME280;1098;48.940;8.962;2022-08-19T03:41:45;98097.13;;;19.86;100.00
2184;BME280;1098;48.940;8.962;2022-08-19T03:44:16;98100.50;;;19.59;100.00
2184;BME280;1098;48.940;8.962;2022-08-19T03:46:48;98081.72;;;19.47;100.00
2184;BME280;1098;48.940;8.962;2022-08-19T03:49:19;98074.75;;;19.36;100.00
2184;BME280;1098;48.940;8.962;2022-08-19T03:51:55;98092.03;;;19.55;100.00
2184;BME280;1098;48.940;8.962;2022-08-19T03:54:28;98061.03;;;19.36;100.00
2184;BME280;1098;48.940;8.962;2022-08-19T03:56:57;98088.31;;;19.46;100.00
2184;BME280;1098;48.940;8.962;2022-08-19T03:59:28;98082.94;;;19.36;100.00
2184;BME280;1098;48.940;8.962;2022-08-19T04:01:59;98100.22;;;19.61;100.00
2184;BME280;1098;48.940;8.962;2022-08-19T04:04:28;98105.28;;;19.48;100.00
2184;BME280;1098;48.940;8.962;2022-08-19T04:07:01;98103.53;;;19.58;100.00
2184;BME280;1098;48.940;8.962;2022-08-19T04:09:34;98122.28;;;19.50;100.00
2184;BME280;1098;48.940;8.962;2022-08-19T04:12:04;98126.22;;;19.39;100.00
2184;BME280;1098;48.940;8.962;2022-08-19T04:14:34;98090.97;;;19.33;100.00
2184;BME280;1098;48.940;8.962;2022-08-19T04:17:03;98116.06;;;19.64;100.00
2184;BME280;1098;48.940;8.962;2022-08-19T04:19:35;98103.03;;;19.32;100.00
2184;BME280;1098;48.940;8.962;2022-08-19T04:22:04;98111.88;;;19.47;100.00
2184;BME280;1098;48.940;8.962;2022-08-19T04:24:35;98115.84;;;19.36;100.00
2184;BME280;1098;48.940;8.962;2022-08-19T04:27:04;98071.34;;;19.44;100.00
2184;BME280;1098;48.940;8.962;2022-08-19T04:29:33;98112.47;;;19.44;100.00
2184;BME280;1098;48.940;8.962;2022-08-19T04:32:02;98113.56;;;19.43;100.00
2184;BME280;1098;48.940;8.962;2022-08-19T04:34:36;98100.09;;;19.47;100.00
2184;BME280;1098;48.940;8.962;2022-08-19T04:37:25;98094.88;;;19.50;100.00
2184;BME280;1098;48.940;8.962;2022-08-19T04:40:05;98069.84;;;19.33;100.00
2184;BME280;1098;48.940;8.962;2022-08-19T04:42:51;98103.09;;;19.50;100.00
2184;BME280;1098;48.940;8.962;2022-08-19T04:45:23;98092.28;;;19.59;100.00
2184;BME280;1098;48.940;8.962;2022-08-19T04:47:55;98103.00;;;19.55;100.00
2184;BME280;1098;48.940;8.962;2022-08-19T04:50:44;98107.69;;;19.31;100.00
2184;BME280;1098;48.940;8.962;2022-08-19T04:53:12;98107.09;;;19.34;100.00
2184;BME280;1098;48.940;8.962;2022-08-19T04:55:42;98110.34;;;19.60;100.00
2184;BME280;1098;48.940;8.962;2022-08-19T04:58:13;98116.53;;;19.47;100.00
2184;BME280;1098;48.940;8.962;2022-08-19T05:00:45;98126.66;;;19.51;100.00
2184;BME280;1098;48.940;8.962;2022-08-19T05:03:14;98112.69;;;19.72;100.00
2184;BME280;1098;48.940;8.962;2022-08-19T05:05:45;98114.78;;;19.56;100.00
2184;BME280;1098;48.940;8.962;2022-08-19T05:08:18;98118.97;;;19.53;100.00
2184;BME280;1098;48.940;8.962;2022-08-19T05:10:59;98087.19;;;19.52;100.00
2184;BME280;1098;48.940;8.962;2022-08-19T05:13:28;98117.88;;;19.49;100.00
2184;BME280;1098;48.940;8.962;2022-08-19T05:15:58;98127.56;;;19.42;100.00
2184;BME280;1098;48.940;8.962;2022-08-19T05:18:27;98123.34;;;19.73;100.00
2184;BME280;1098;48.940;8.962;2022-08-19T05:21:14;98131.75;;;19.58;100.00
2184;BME280;1098;48.940;8.962;2022-08-19T05:24:03;98131.47;;;19.60;100.00
2184;BME280;1098;48.940;8.962;2022-08-19T05:26:37;98127.50;;;19.71;100.00
2184;BME280;1098;48.940;8.962;2022-08-19T05:29:07;98147.22;;;19.73;100.00
2184;BME280;1098;48.940;8.962;2022-08-19T05:31:39;98146.81;;;19.61;100.00
2184;BME280;1098;48.940;8.962;2022-08-19T05:34:08;98150.94;;;19.58;100.00
2184;BME280;1098;48.940;8.962;2022-08-19T05:36:47;98153.63;;;19.63;100.00
2184;BME280;1098;48.940;8.962;2022-08-19T05:39:19;98166.25;;;19.83;100.00
2184;BME280;1098;48.940;8.962;2022-08-19T05:41:52;98172.25;;;19.85;100.00
2184;BME280;1098;48.940;8.962;2022-08-19T05:44:21;98180.41;;;19.90;100.00
2184;BME280;1098;48.940;8.962;2022-08-19T05:46:50;98190.06;;;19.64;100.00
2184;BME280;1098;48.940;8.962;2022-08-19T05:49:22;98202.28;;;19.52;100.00
2184;BME280;1098;48.940;8.962;2022-08-19T05:51:50;98204.84;;;19.68;100.00
2184;BME280;1098;48.940;8.962;2022-08-19T05:54:19;98153.56;;;19.20;100.00
2184;BME280;1098;48.940;8.962;2022-08-19T05:56:50;98208.03;;;19.75;100.00
2184;BME280;1098;48.940;8.962;2022-08-19T05:59:20;98200.81;;;19.60;100.00
2184;BME280;1098;48.940;8.962;2022-08-19T06:01:52;98182.91;;;19.68;100.00
2184;BME280;1098;48.940;8.962;2022-08-19T06:04:24;98187.91;;;19.61;100.00
2184;BME280;1098;48.940;8.962;2022-08-19T06:06:53;98154.06;;;19.51;100.00
2184;BME280;1098;48.940;8.962;2022-08-19T06:09:22;98191.56;;;19.75;100.00
2184;BME280;1098;48.940;8.962;2022-08-19T06:11:54;98189.53;;;19.85;100.00
2184;BME280;1098;48.940;8.962;2022-08-19T06:14:31;98138.75;;;19.45;100.00
2184;BME280;1098;48.940;8.962;2022-08-19T06:17:03;98180.69;;;19.70;100.00
2184;BME280;1098;48.940;8.962;2022-08-19T06:19:33;98194.78;;;19.82;100.00
2184;BME280;1098;48.940;8.962;2022-08-19T06:22:07;98193.13;;;19.81;100.00
2184;BME280;1098;48.940;8.962;2022-08-19T06:24:36;98162.28;;;19.51;100.00
2184;BME280;1098;48.940;8.962;2022-08-19T06:27:06;98189.63;;;19.75;100.00
2184;BME280;1098;48.940;8.962;2022-08-19T06:29:34;98189.53;;;19.85;100.00
2184;BME280;1098;48.940;8.962;2022-08-19T06:32:04;98182.84;;;19.73;100.00
2184;BME280;1098;48.940;8.962;2022-08-19T06:34:34;98188.72;;;19.85;100.00
2184;BME280;1098;48.940;8.962;2022-08-19T06:37:03;98186.13;;;19.94;100.00
2184;BME280;1098;48.940;8.962;2022-08-19T06:39:36;98181.66;;;19.79;100.00
2184;BME280;1098;48.940;8.962;2022-08-19T06:42:07;98187.53;;;19.91;100.00
2184;BME280;1098;48.940;8.962;2022-08-19T06:44:40;98174.47;;;19.83;100.00
2184;BME280;1098;48.940;8.962;2022-08-19T06:47:16;98192.56;;;20.03;100.00
2184;BME280;1098;48.940;8.962;2022-08-19T06:49:54;98183.31;;;19.99;100.00
2184;BME280;1098;48.940;8.962;2022-08-19T06:52:29;98159.66;;;19.84;100.00
2184;BME280;1098;48.940;8.962;2022-08-19T06:55:00;98178.25;;;19.87;100.00
2184;BME280;1098;48.940;8.962;2022-08-19T06:57:34;98186.22;;;20.07;100.00
2184;BME280;1098;48.940;8.962;2022-08-19T07:00:05;98198.00;;;20.08;100.00
2184;BME280;1098;48.940;8.962;2022-08-19T07:02:39;98202.44;;;20.04;100.00
2184;BME280;1098;48.940;8.962;2022-08-19T07:05:13;98203.78;;;20.06;100.00
2184;BME280;1098;48.940;8.962;2022-08-19T07:07:42;98211.94;;;19.93;100.00
2184;BME280;1098;48.940;8.962;2022-08-19T07:10:13;98204.94;;;20.00;100.00
2184;BME280;1098;48.940;8.962;2022-08-19T07:12:44;98185.47;;;20.02;100.00
2184;BME280;1098;48.940;8.962;2022-08-19T07:15:17;98202.38;;;20.28;100.00
2184;BME280;1098;48.940;8.962;2022-08-19T07:17:45;98177.69;;;20.09;100.00
2184;BME280;1098;48.940;8.962;2022-08-19T07:20:19;98198.22;;;20.11;100.00
2184;BME280;1098;48.940;8.962;2022-08-19T07:22:54;98186.28;;;20.21;100.00
2184;BME280;1098;48.940;8.962;2022-08-19T07:25:22;98198.25;;;20.49;100.00
2184;BME280;1098;48.940;8.962;2022-08-19T07:28:00;98190.22;;;20.34;100.00
2184;BME280;1098;48.940;8.962;2022-08-19T07:30:29;98206.56;;;20.44;100.00
2184;BME280;1098;48.940;8.962;2022-08-19T07:33:00;98196.00;;;20.32;100.00
2184;BME280;1098;48.940;8.962;2022-08-19T07:35:29;98171.53;;;20.36;100.00
2184;BME280;1098;48.940;8.962;2022-08-19T07:37:59;98208.31;;;20.72;100.00
2184;BME280;1098;48.940;8.962;2022-08-19T07:40:30;98179.59;;;20.65;100.00
2184;BME280;1098;48.940;8.962;2022-08-19T07:42:59;98191.75;;;20.58;100.00
2184;BME280;1098;48.940;8.962;2022-08-19T07:45:28;98172.53;;;20.77;100.00
2184;BME280;1098;48.940;8.962;2022-08-19T07:47:57;98210.13;;;20.96;100.00
2184;BME280;1098;48.940;8.962;2022-08-19T07:50:27;98212.94;;;20.90;100.00
2184;BME280;1098;48.940;8.962;2022-08-19T07:52:55;98214.06;;;20.89;100.00
2184;BME280;1098;48.940;8.962;2022-08-19T07:55:25;98201.13;;;20.90;100.00
2184;BME280;1098;48.940;8.962;2022-08-19T07:58:11;98207.53;;;20.85;100.00
2184;BME280;1098;48.940;8.962;2022-08-19T08:00:42;98181.19;;;20.84;100.00
2184;BME280;1098;48.940;8.962;2022-08-19T08:03:11;98204.69;;;21.23;100.00
2184;BME280;1098;48.940;8.962;2022-08-19T08:05:43;98206.34;;;21.05;100.00
2184;BME280;1098;48.940;8.962;2022-08-19T08:08:29;98194.22;;;20.92;100.00
2184;BME280;1098;48.940;8.962;2022-08-19T08:11:17;98218.84;;;21.30;100.00
2184;BME280;1098;48.940;8.962;2022-08-19T08:13:47;98218.16;;;21.52;100.00
2184;BME280;1098;48.940;8.962;2022-08-19T08:16:33;98213.91;;;21.59;100.00
2184;BME280;1098;48.940;8.962;2022-08-19T08:19:06;98197.69;;;21.31;100.00
2184;BME280;1098;48.940;8.962;2022-08-19T08:21:54;98202.69;;;21.56;100.00
2184;BME280;1098;48.940;8.962;2022-08-19T08:24:23;98218.28;;;21.60;100.00
2184;BME280;1098;48.940;8.962;2022-08-19T08:26:55;98236.00;;;21.54;100.00
2184;BME280;1098;48.940;8.962;2022-08-19T08:29:28;98227.63;;;21.87;100.00
2184;BME280;1098;48.940;8.962;2022-08-19T08:32:03;98210.91;;;21.42;100.00
2184;BME280;1098;48.940;8.962;2022-08-19T08:34:41;98221.94;;;21.70;100.00
2184;BME280;1098;48.940;8.962;2022-08-19T08:37:09;98227.34;;;21.75;100.00
2184;BME280;1098;48.940;8.962;2022-08-19T08:39:38;98233.34;;;21.77;100.00
2184;BME280;1098;48.940;8.962;2022-08-19T08:42:09;98240.88;;;21.85;100.00
2184;BME280;1098;48.940;8.962;2022-08-19T08:44:48;98188.22;;;21.50;100.00
2184;BME280;1098;48.940;8.962;2022-08-19T08:47:31;98223.47;;;22.03;100.00
2184;BME280;1098;48.940;8.962;2022-08-19T08:50:05;98222.75;;;22.11;100.00
2184;BME280;1098;48.940;8.962;2022-08-19T08:52:43;98217.66;;;21.91;100.00
2184;BME280;1098;48.940;8.962;2022-08-19T08:55:16;98233.53;;;21.94;100.00
2184;BME280;1098;48.940;8.962;2022-08-19T08:57:52;98229.59;;;22.00;100.00
2184;BME280;1098;48.940;8.962;2022-08-19T09:00:27;98231.31;;;22.10;100.00
2184;BME280;1098;48.940;8.962;2022-08-19T09:02:58;98211.16;;;22.01;100.00
2184;BME280;1098;48.940;8.962;2022-08-19T09:05:35;98226.63;;;22.10;100.00
2184;BME280;1098;48.940;8.962;2022-08-19T09:08:22;98226.28;;;22.25;100.00
2184;BME280;1098;48.940;8.962;2022-08-19T09:10:56;98217.75;;;22.13;100.00
2184;BME280;1098;48.940;8.962;2022-08-19T09:13:31;98206.97;;;22.39;100.00
2184;BME280;1098;48.940;8.962;2022-08-19T09:16:06;98201.94;;;22.19;100.00
2184;BME280;1098;48.940;8.962;2022-08-19T09:18:42;98228.81;;;22.36;100.00
2184;BME280;1098;48.940;8.962;2022-08-19T09:21:11;98223.72;;;22.65;100.00
2184;BME280;1098;48.940;8.962;2022-08-19T09:23:42;98201.38;;;22.31;100.00
2184;BME280;1098;48.940;8.962;2022-08-19T09:26:14;98227.44;;;21.97;100.00
2184;BME280;1098;48.940;8.962;2022-08-19T09:28:44;98220.19;;;22.51;100.00
2184;BME280;1098;48.940;8.962;2022-08-19T09:31:17;98227.88;;;22.40;100.00
2184;BME280;1098;48.940;8.962;2022-08-19T09:33:50;98226.78;;;22.27;100.00
2184;BME280;1098;48.940;8.962;2022-08-19T09:36:21;98230.19;;;22.47;100.00
2184;BME280;1098;48.940;8.962;2022-08-19T09:39:02;98206.13;;;22.52;100.00
2184;BME280;1098;48.940;8.962;2022-08-19T09:41:42;98202.84;;;22.50;100.00
2184;BME280;1098;48.940;8.962;2022-08-19T09:44:15;98214.28;;;22.21;100.00
2184;BME280;1098;48.940;8.962;2022-08-19T09:46:47;98211.59;;;22.30;100.00
2184;BME280;1098;48.940;8.962;2022-08-19T09:49:19;98227.03;;;22.04;100.00
2184;BME280;1098;48.940;8.962;2022-08-19T09:51:51;98214.28;;;22.21;100.00
2184;BME280;1098;48.940;8.962;2022-08-19T09:54:22;98237.66;;;22.82;100.00
2184;BME280;1098;48.940;8.962;2022-08-19T09:59:21;98241.13;;;22.74;100.00
2184;BME280;1098;48.940;8.962;2022-08-19T10:01:50;98230.53;;;22.68;100.00
2184;BME280;1098;48.940;8.962;2022-08-19T10:04:21;98231.88;;;22.34;100.00
2184;BME280;1098;48.940;8.962;2022-08-19T10:07:11;98235.41;;;22.84;100.00
2184;BME280;1098;48.940;8.962;2022-08-19T10:09:39;98186.41;;;23.04;100.00
2184;BME280;1098;48.940;8.962;2022-08-19T10:12:08;98236.00;;;23.26;100.00
2184;BME280;1098;48.940;8.962;2022-08-19T10:14:37;98229.81;;;22.98;100.00
2184;BME280;1098;48.940;8.962;2022-08-19T10:17:06;98233.94;;;23.62;100.00
2184;BME280;1098;48.940;8.962;2022-08-19T10:19:47;98212.84;;;23.36;100.00
2184;BME280;1098;48.940;8.962;2022-08-19T10:22:22;98223.44;;;23.42;100.00
2184;BME280;1098;48.940;8.962;2022-08-19T10:24:52;98212.47;;;23.99;100.00
2184;BME280;1098;48.940;8.962;2022-08-19T10:27:20;98226.03;;;23.78;100.00
2184;BME280;1098;48.940;8.962;2022-08-19T10:29:49;98214.44;;;24.07;100.00
2184;BME280;1098;48.940;8.962;2022-08-19T10:32:19;98206.88;;;24.47;100.00
2184;BME280;1098;48.940;8.962;2022-08-19T10:35:02;98211.72;;;24.76;100.00
2184;BME280;1098;48.940;8.962;2022-08-19T10:37:35;98222.94;;;24.37;100.00
2184;BME280;1098;48.940;8.962;2022-08-19T10:40:23;98221.13;;;24.23;100.00
2184;BME280;1098;48.940;8.962;2022-08-19T10:42:54;98223.09;;;23.66;100.00
2184;BME280;1098;48.940;8.962;2022-08-19T10:45:23;98193.16;;;24.16;100.00
2184;BME280;1098;48.940;8.962;2022-08-19T10:47:54;98194.13;;;24.03;100.00
2184;BME280;1098;48.940;8.962;2022-08-19T10:50:24;98186.66;;;24.04;100.00
2184;BME280;1098;48.940;8.962;2022-08-19T10:53:10;98193.16;;;24.16;100.00
2184;BME280;1098;48.940;8.962;2022-08-19T10:55:38;98184.09;;;24.93;94.27
2184;BME280;1098;48.940;8.962;2022-08-19T10:58:23;98173.38;;;24.83;88.63
2184;BME280;1098;48.940;8.962;2022-08-19T11:00:53;98170.59;;;25.00;91.38
2184;BME280;1098;48.940;8.962;2022-08-19T11:03:22;98162.28;;;25.00;89.19
2184;BME280;1098;48.940;8.962;2022-08-19T11:05:58;98158.56;;;24.79;88.13
2184;BME280;1098;48.940;8.962;2022-08-19T11:08:26;98162.25;;;25.18;88.96
2184;BME280;1098;48.940;8.962;2022-08-19T11:10:54;98165.78;;;25.36;83.53
2184;BME280;1098;48.940;8.962;2022-08-19T11:13:27;98177.13;;;24.44;85.47
2184;BME280;1098;48.940;8.962;2022-08-19T11:15:56;98171.88;;;25.12;82.18
2184;BME280;1098;48.940;8.962;2022-08-19T11:18:31;98177.75;;;24.84;83.81
2184;BME280;1098;48.940;8.962;2022-08-19T11:21:06;98178.06;;;24.83;83.82
2184;BME280;1098;48.940;8.962;2022-08-19T11:23:34;98178.06;;;24.83;83.44
2184;BME280;1098;48.940;8.962;2022-08-19T11:26:02;98170.13;;;24.64;84.96
2184;BME280;1098;48.940;8.962;2022-08-19T11:28:31;98172.09;;;24.72;85.56
2184;BME280;1098;48.940;8.962;2022-08-19T11:30:59;98167.78;;;25.18;82.49
2184;BME280;1098;48.940;8.962;2022-08-19T11:33:29;98169.13;;;24.86;84.52
2184;BME280;1098;48.940;8.962;2022-08-19T11:35:58;98173.69;;;24.90;84.40
2184;BME280;1098;48.940;8.962;2022-08-19T11:38:28;98177.91;;;24.96;84.49
2184;BME280;1098;48.940;8.962;2022-08-19T11:40:57;98169.94;;;24.95;82.77
2184;BME280;1098;48.940;8.962;2022-08-19T11:43:26;98165.16;;;25.30;84.32
2184;BME280;1098;48.940;8.962;2022-08-19T11:45:54;98175.56;;;25.24;79.79
2184;BME280;1098;48.940;8.962;2022-08-19T11:48:25;98175.47;;;24.86;80.04
2184;BME280;1098;48.940;8.962;2022-08-19T11:50:53;98171.75;;;24.91;81.80
2184;BME280;1098;48.940;8.962;2022-08-19T11:53:23;98173.22;;;24.62;81.13
2184;BME280;1098;48.940;8.962;2022-08-19T11:55:53;98170.78;;;24.61;77.48
2184;BME280;1098;48.940;8.962;2022-08-19T11:58:23;98178.56;;;24.93;74.52
2184;BME280;1098;48.940;8.962;2022-08-19T12:00:51;98168.47;;;24.97;73.57
2184;BME280;1098;48.940;8.962;2022-08-19T12:03:20;98170.09;;;25.07;72.56
2184;BME280;1098;48.940;8.962;2022-08-19T12:05:48;98166.16;;;25.17;73.30
2184;BME280;1098;48.940;8.962;2022-08-19T12:08:16;98169.25;;;25.91;70.64
2184;BME280;1098;48.940;8.962;2022-08-19T12:10:44;98170.44;;;25.82;68.06
2184;BME280;1098;48.940;8.962;2022-08-19T12:13:14;98176.28;;;25.51;67.88
2184;BME280;1098;48.940;8.962;2022-08-19T12:15:45;98173.88;;;26.29;67.42
2184;BME280;1098;48.940;8.962;2022-08-19T12:18:14;98176.63;;;25.87;67.48
2184;BME280;1098;48.940;8.962;2022-08-19T12:20:44;98171.41;;;25.86;67.00
2184;BME280;1098;48.940;8.962;2022-08-19T12:23:16;98170.66;;;26.27;68.40
2184;BME280;1098;48.940;8.962;2022-08-19T12:25:46;98167.19;;;26.09;68.18
2184;BME280;1098;48.940;8.962;2022-08-19T12:28:19;98159.97;;;25.96;66.21
2184;BME280;1098;48.940;8.962;2022-08-19T12:30:47;98161.50;;;26.06;65.29
2184;BME280;1098;48.940;8.962;2022-08-19T12:33:19;98147.06;;;26.62;64.23
2184;BME280;1098;48.940;8.962;2022-08-19T12:35:51;98144.13;;;26.80;62.61
2184;BME280;1098;48.940;8.962;2022-08-19T12:38:20;98141.69;;;26.45;63.56
2184;BME280;1098;48.940;8.962;2022-08-19T12:40:51;98153.28;;;26.92;61.65
2184;BME280;1098;48.940;8.962;2022-08-19T12:43:27;98115.22;;;26.68;59.18
2184;BME280;1098;48.940;8.962;2022-08-19T12:45:57;98142.16;;;26.47;59.14
2184;BME280;1098;48.940;8.962;2022-08-19T12:48:28;98149.28;;;26.69;57.43
2184;BME280;1098;48.940;8.962;2022-08-19T12:51:00;98157.25;;;26.70;57.63
2184;BME280;1098;48.940;8.962;2022-08-19T12:53:29;98137.66;;;26.76;57.82
2184;BME280;1098;48.940;8.962;2022-08-19T12:55:58;98158.53;;;26.73;61.92
2184;BME280;1098;48.940;8.962;2022-08-19T12:58:28;98165.06;;;26.89;61.46
2184;BME280;1098;48.940;8.962;2022-08-19T13:00:56;98157.97;;;27.00;59.49
2184;BME280;1098;48.940;8.962;2022-08-19T13:03:24;98162.13;;;26.94;61.35
2184;BME280;1098;48.940;8.962;2022-08-19T13:05:56;98166.75;;;27.02;61.84
2184;BME280;1098;48.940;8.962;2022-08-19T13:08:24;98176.03;;;26.32;58.39
2184;BME280;1098;48.940;8.962;2022-08-19T13:10:52;98168.47;;;25.91;59.98
2184;BME280;1098;48.940;8.962;2022-08-19T13:13:21;98178.47;;;26.33;58.83
2184;BME280;1098;48.940;8.962;2022-08-19T13:15:50;98174.72;;;26.71;58.50
2184;BME280;1098;48.940;8.962;2022-08-19T13:18:18;98165.38;;;27.09;57.46
2184;BME280;1098;48.940;8.962;2022-08-19T13:20:48;98158.31;;;26.45;55.87
2184;BME280;1098;48.940;8.962;2022-08-19T13:23:18;98161.72;;;26.63;56.00
2184;BME280;1098;48.940;8.962;2022-08-19T13:25:54;98166.91;;;26.31;57.38
2184;BME280;1098;48.940;8.962;2022-08-19T13:28:23;98176.59;;;26.17;58.18
2184;BME280;1098;48.940;8.962;2022-08-19T13:30:56;98167.84;;;26.06;59.31
2184;BME280;1098;48.940;8.962;2022-08-19T13:33:42;98175.06;;;25.98;59.38
2184;BME280;1098;48.940;8.962;2022-08-19T13:36:11;98174.50;;;25.84;59.44
2184;BME280;1098;48.940;8.962;2022-08-19T13:38:40;98181.41;;;25.99;60.06
2184;BME280;1098;48.940;8.962;2022-08-19T13:41:09;98177.47;;;26.09;59.97